createdAt,value
2023-04-01T00:00:12.574Z,7.92
2023-04-01T00:01:12.594Z,7.90
2023-04-01T00:02:12.645Z,7.90
2023-04-01T00:03:12.647Z,7.89
2023-04-01T00:04:12.581Z,7.89
2023-04-01T00:05:12.532Z,7.93
2023-04-01T00:06:12.516Z,8.02
2023-04-01T00:07:12.510Z,8.02
2023-04-01T00:08:12.502Z,8.01
2023-04-01T00:09:12.493Z,8.00
2023-04-01T00:10:12.471Z,8.02
2023-04-01T00:11:12.469Z,8.01
2023-04-01T00:12:12.464Z,8.01
2023-04-01T00:13:12.447Z,8.01
2023-04-01T00:14:12.439Z,7.98
2023-04-01T00:15:12.424Z,7.98
2023-04-01T00:16:20.988Z,7.98
2023-04-01T00:17:13.403Z,7.97
2023-04-01T00:18:12.384Z,8.02
2023-04-01T00:19:12.387Z,8.01
2023-04-01T00:20:12.378Z,8.07
2023-04-01T00:21:12.358Z,8.02
2023-04-01T00:22:12.340Z,8.02
2023-04-01T00:23:13.160Z,8.04
2023-04-01T00:24:12.322Z,8.04
2023-04-01T00:25:12.323Z,8.01
2023-04-01T00:26:12.309Z,8.02
2023-04-01T00:27:12.301Z,8.02
2023-04-01T00:28:12.303Z,8.00
2023-04-01T00:29:12.286Z,7.98
2023-04-01T00:30:12.258Z,8.02
2023-04-01T00:31:12.291Z,8.11
2023-04-01T00:32:12.257Z,8.15
2023-04-01T00:33:12.258Z,8.12
2023-04-01T00:34:12.223Z,8.10
2023-04-01T00:35:12.212Z,8.15
2023-04-01T00:36:12.225Z,8.12
2023-04-01T00:37:12.200Z,8.12
2023-04-01T00:38:12.177Z,8.11
2023-04-01T00:39:12.184Z,8.19
2023-04-01T00:40:12.846Z,8.25
2023-04-01T00:41:12.152Z,8.23
2023-04-01T00:42:12.145Z,8.22
2023-04-01T00:43:12.141Z,8.34
2023-04-01T00:44:12.237Z,8.37
2023-04-01T00:45:12.108Z,8.37
2023-04-01T00:46:12.107Z,8.36
2023-04-01T00:47:12.120Z,8.37
2023-04-01T00:48:12.124Z,8.36
2023-04-01T00:49:12.078Z,8.36
2023-04-01T00:50:12.047Z,8.37
2023-04-01T00:51:12.043Z,8.29
2023-04-01T00:52:12.044Z,8.26
2023-04-01T00:53:12.036Z,8.25
2023-04-01T00:54:12.027Z,8.20
2023-04-01T00:55:12.021Z,8.20
2023-04-01T00:56:11.985Z,8.19
2023-04-01T00:57:12.193Z,8.19
2023-04-01T00:58:11.975Z,8.20
2023-04-01T00:59:11.961Z,8.23
2023-04-01T01:00:11.938Z,8.26
2023-04-01T01:01:12.002Z,8.25
2023-04-01T01:02:11.942Z,8.26
2023-04-01T01:03:11.995Z,8.23
2023-04-01T01:04:11.907Z,8.23
2023-04-01T01:05:11.900Z,8.20
2023-04-01T01:06:11.881Z,8.22
2023-04-01T01:07:11.871Z,8.20
2023-04-01T01:08:11.861Z,8.22
2023-04-01T01:09:11.852Z,8.23
2023-04-01T01:10:11.849Z,8.28
2023-04-01T01:11:11.853Z,8.29
2023-04-01T01:12:11.815Z,8.30
2023-04-01T01:13:11.806Z,8.26
2023-04-01T01:14:11.791Z,8.25
2023-04-01T01:15:11.792Z,8.26
2023-04-01T01:16:11.790Z,8.26
2023-04-01T01:17:11.779Z,8.30
2023-04-01T01:18:11.760Z,8.28
2023-04-01T01:19:11.749Z,8.26
2023-04-01T01:20:24.929Z,8.28
2023-04-01T01:21:12.739Z,8.29
2023-04-01T01:22:12.522Z,8.28
2023-04-01T01:23:11.733Z,8.23
2023-04-01T01:24:11.703Z,8.23
2023-04-01T01:25:11.687Z,8.23
2023-04-01T01:26:11.666Z,8.23
2023-04-01T01:27:12.490Z,8.25
2023-04-01T01:28:11.644Z,8.23
2023-04-01T01:29:11.646Z,8.18
2023-04-01T01:30:11.622Z,8.18
2023-04-01T01:31:11.633Z,8.10
2023-04-01T01:32:11.608Z,8.12
2023-04-01T01:33:11.659Z,8.12
2023-04-01T01:34:12.395Z,8.12
2023-04-01T01:35:11.580Z,8.12
2023-04-01T01:36:11.605Z,8.10
2023-04-01T01:37:11.595Z,8.07
2023-04-01T01:38:11.539Z,8.05
2023-04-01T01:39:11.520Z,8.04
2023-04-01T01:40:11.525Z,8.04
2023-04-01T01:41:11.507Z,8.05
2023-04-01T01:42:11.540Z,8.05
2023-04-01T01:43:11.491Z,8.02
2023-04-01T01:44:11.492Z,8.04
2023-04-01T01:45:11.476Z,8.01
2023-04-01T01:46:11.511Z,8.01
2023-04-01T01:47:11.445Z,7.98
2023-04-01T01:48:12.311Z,7.97
2023-04-01T01:49:11.452Z,7.93
2023-04-01T01:50:11.428Z,7.90
2023-04-01T01:51:11.398Z,7.90
2023-04-01T01:52:12.203Z,7.87
2023-04-01T01:53:11.392Z,7.87
2023-04-01T01:54:11.380Z,7.83
2023-04-01T01:55:11.346Z,7.79
2023-04-01T01:56:11.366Z,7.75
2023-04-01T01:57:11.341Z,7.72
2023-04-01T01:58:11.341Z,7.71
2023-04-01T01:59:11.320Z,7.68
2023-04-01T02:00:12.121Z,7.69
2023-04-01T02:01:11.326Z,7.74
2023-04-01T02:02:11.295Z,7.69
2023-04-01T02:03:11.402Z,7.68
2023-04-01T02:04:11.380Z,7.68
2023-04-01T02:05:11.253Z,7.83
2023-04-01T02:06:11.252Z,7.85
2023-04-01T02:07:11.237Z,7.85
2023-04-01T02:08:11.231Z,7.86
2023-04-01T02:09:11.204Z,7.80
2023-04-01T02:10:11.202Z,7.75
2023-04-01T02:11:11.373Z,7.74
2023-04-01T02:12:11.179Z,7.67
2023-04-01T02:13:11.169Z,7.68
2023-04-01T02:14:11.156Z,7.67
2023-04-01T02:15:11.140Z,7.71
2023-04-01T02:16:11.196Z,7.72
2023-04-01T02:17:11.150Z,7.75
2023-04-01T02:18:11.132Z,7.69
2023-04-01T02:19:11.224Z,7.72
2023-04-01T02:20:11.098Z,7.64
2023-04-01T02:21:11.082Z,7.61
2023-04-01T02:22:11.093Z,7.58
2023-04-01T02:23:11.055Z,7.55
2023-04-01T02:24:11.072Z,7.49
2023-04-01T02:25:11.031Z,7.53
2023-04-01T02:26:11.030Z,7.58
2023-04-01T02:27:11.010Z,7.57
2023-04-01T02:28:11.016Z,7.52
2023-04-01T02:29:10.994Z,7.53
2023-04-01T02:30:11.016Z,7.53
2023-04-01T02:31:11.009Z,7.50
2023-04-01T02:32:10.979Z,7.46
2023-04-01T02:33:10.990Z,7.40
2023-04-01T02:34:10.966Z,7.35
2023-04-01T02:35:10.937Z,7.35
2023-04-01T02:36:10.939Z,7.35
2023-04-01T02:37:10.904Z,7.28
2023-04-01T02:38:10.896Z,7.20
2023-04-01T02:39:10.895Z,7.16
2023-04-01T02:40:10.991Z,7.20
2023-04-01T02:41:10.866Z,7.20
2023-04-01T02:42:10.855Z,7.20
2023-04-01T02:43:10.848Z,7.20
2023-04-01T02:44:10.845Z,7.24
2023-04-01T02:45:10.833Z,7.28
2023-04-01T02:46:10.856Z,7.28
2023-04-01T02:47:10.841Z,7.30
2023-04-01T02:48:10.802Z,7.31
2023-04-01T02:49:10.781Z,7.35
2023-04-01T02:50:10.803Z,7.39
2023-04-01T02:51:10.858Z,7.43
2023-04-01T02:52:10.757Z,7.49
2023-04-01T02:53:10.736Z,7.53
2023-04-01T02:54:10.735Z,7.60
2023-04-01T02:55:10.716Z,7.67
2023-04-01T02:56:10.729Z,7.63
2023-04-01T02:57:10.761Z,7.61
2023-04-01T02:58:10.698Z,7.72
2023-04-01T02:59:10.682Z,7.72
2023-04-01T03:00:10.670Z,7.77
2023-04-01T03:01:10.808Z,7.77
2023-04-01T03:02:11.515Z,7.85
2023-04-01T03:03:10.791Z,7.83
2023-04-01T03:04:10.645Z,7.82
2023-04-01T03:05:10.608Z,7.77
2023-04-01T03:06:10.618Z,7.72
2023-04-01T03:07:10.596Z,7.69
2023-04-01T03:08:11.189Z,7.60
2023-04-01T03:09:10.572Z,7.55
2023-04-01T03:10:10.582Z,7.53
2023-04-01T03:11:10.546Z,7.50
2023-04-01T03:12:11.364Z,7.50
2023-04-01T03:13:10.573Z,7.49
2023-04-01T03:14:10.535Z,7.61
2023-04-01T03:15:11.634Z,7.68
2023-04-01T03:16:11.413Z,7.69
2023-04-01T03:17:11.200Z,7.74
2023-04-01T03:18:10.483Z,7.86
2023-04-01T03:19:10.467Z,7.95
2023-04-01T03:20:10.477Z,7.97
2023-04-01T03:21:10.453Z,7.98
2023-04-01T03:22:10.453Z,8.01
2023-04-01T03:23:10.414Z,7.95
2023-04-01T03:24:10.445Z,7.90
2023-04-01T03:25:10.412Z,7.87
2023-04-01T03:26:10.402Z,7.86
2023-04-01T03:27:10.384Z,7.83
2023-04-01T03:28:10.372Z,7.75
2023-04-01T03:29:10.394Z,7.85
2023-04-01T03:30:10.413Z,7.86
2023-04-01T03:31:10.384Z,7.86
2023-04-01T03:32:10.342Z,7.86
2023-04-01T03:33:10.307Z,7.80
2023-04-01T03:34:10.405Z,7.82
2023-04-01T03:35:10.289Z,7.82
2023-04-01T03:36:10.993Z,7.82
2023-04-01T03:37:10.274Z,7.95
2023-04-01T03:38:10.277Z,7.93
2023-04-01T03:39:10.252Z,7.92
2023-04-01T03:40:10.254Z,7.89
2023-04-01T03:41:10.235Z,7.90
2023-04-01T03:42:10.237Z,7.92
2023-04-01T03:43:10.255Z,7.92
2023-04-01T03:44:10.209Z,7.98
2023-04-01T03:45:10.213Z,8.00
2023-04-01T03:46:10.248Z,8.00
2023-04-01T03:47:10.164Z,8.05
2023-04-01T03:48:10.995Z,8.07
2023-04-01T03:49:10.140Z,7.98
2023-04-01T03:50:10.158Z,7.92
2023-04-01T03:51:10.126Z,7.80
2023-04-01T03:52:10.132Z,7.72
2023-04-01T03:53:10.102Z,7.61
2023-04-01T03:54:10.116Z,7.53
2023-04-01T03:55:10.078Z,7.46
2023-04-01T03:56:10.093Z,7.45
2023-04-01T03:57:10.122Z,7.40
2023-04-01T03:58:10.066Z,7.52
2023-04-01T03:59:10.093Z,7.55
2023-04-01T04:00:10.123Z,7.61
2023-04-01T04:01:10.426Z,7.60
2023-04-01T04:02:10.057Z,7.60
2023-04-01T04:03:10.146Z,7.67
2023-04-01T04:04:10.078Z,7.69
2023-04-01T04:05:09.981Z,7.67
2023-04-01T04:06:09.993Z,7.71
2023-04-01T04:07:09.950Z,7.72
2023-04-01T04:08:09.951Z,7.83
2023-04-01T04:09:09.937Z,7.85
2023-04-01T04:10:09.952Z,7.87
2023-04-01T04:11:09.908Z,7.87
2023-04-01T04:12:09.911Z,7.98
2023-04-01T04:13:09.894Z,7.98
2023-04-01T04:14:09.921Z,8.05
2023-04-01T04:15:10.222Z,8.04
2023-04-01T04:16:09.901Z,8.10
2023-04-01T04:17:09.850Z,8.05
2023-04-01T04:18:09.845Z,8.08
2023-04-01T04:19:10.634Z,8.07
2023-04-01T04:20:09.876Z,8.07
2023-04-01T04:21:09.802Z,8.02
2023-04-01T04:22:09.853Z,8.05
2023-04-01T04:23:09.786Z,8.02
2023-04-01T04:24:09.789Z,8.07
2023-04-01T04:25:09.798Z,8.10
2023-04-01T04:26:09.763Z,8.10
2023-04-01T04:27:09.743Z,8.10
2023-04-01T04:28:09.743Z,8.04
2023-04-01T04:29:09.724Z,8.05
2023-04-01T04:30:09.744Z,8.10
2023-04-01T04:31:09.754Z,8.08
2023-04-01T04:32:09.697Z,8.07
2023-04-01T04:33:09.757Z,8.10
2023-04-01T04:34:09.679Z,8.07
2023-04-01T04:35:09.653Z,8.05
2023-04-01T04:36:10.206Z,8.04
2023-04-01T04:37:09.664Z,8.05
2023-04-01T04:38:09.663Z,8.07
2023-04-01T04:39:09.612Z,8.05
2023-04-01T04:40:09.637Z,8.02
2023-04-01T04:41:09.601Z,8.01
2023-04-01T04:42:09.741Z,8.01
2023-04-01T04:43:09.611Z,8.01
2023-04-01T04:44:09.575Z,8.00
2023-04-01T04:45:09.546Z,8.01
2023-04-01T04:46:09.553Z,8.05
2023-04-01T04:47:09.598Z,8.10
2023-04-01T04:48:09.585Z,8.12
2023-04-01T04:49:09.510Z,8.22
2023-04-01T04:50:09.536Z,8.28
2023-04-01T04:51:09.488Z,8.30
2023-04-01T04:52:09.488Z,8.40
2023-04-01T04:53:09.476Z,8.40
2023-04-01T04:54:09.460Z,8.38
2023-04-01T04:55:09.445Z,8.37
2023-04-01T04:56:09.445Z,8.36
2023-04-01T04:57:09.478Z,8.29
2023-04-01T04:58:09.420Z,8.29
2023-04-01T04:59:09.411Z,8.20
2023-04-01T05:00:09.428Z,8.15
2023-04-01T05:01:09.457Z,8.05
2023-04-01T05:02:09.456Z,8.01
2023-04-01T05:03:09.491Z,8.00
2023-04-01T05:04:09.535Z,7.97
2023-04-01T05:05:09.416Z,7.87
2023-04-01T05:06:09.355Z,7.82
2023-04-01T05:07:09.311Z,7.72
2023-04-01T05:08:09.325Z,7.64
2023-04-01T05:09:09.291Z,7.58
2023-04-01T05:10:09.327Z,7.60
2023-04-01T05:11:09.832Z,7.63
2023-04-01T05:12:09.278Z,7.64
2023-04-01T05:13:09.654Z,7.67
2023-04-01T05:14:09.258Z,7.63
2023-04-01T05:15:09.268Z,7.64
2023-04-01T05:16:09.269Z,7.64
2023-04-01T05:17:09.316Z,7.61
2023-04-01T05:18:09.374Z,7.58
2023-04-01T05:19:09.220Z,7.57
2023-04-01T05:20:09.216Z,7.49
2023-04-01T05:21:09.240Z,7.48
2023-04-01T05:22:09.973Z,7.42
2023-04-01T05:23:09.362Z,7.35
2023-04-01T05:24:09.171Z,7.31
2023-04-01T05:25:09.217Z,7.24
2023-04-01T05:26:09.134Z,7.16
2023-04-01T05:27:09.157Z,7.10
2023-04-01T05:28:09.116Z,7.10
2023-04-01T05:29:09.082Z,7.09
2023-04-01T05:30:09.107Z,7.07
2023-04-01T05:31:09.238Z,7.10
2023-04-01T05:32:09.865Z,7.10
2023-04-01T05:33:09.115Z,7.05
2023-04-01T05:34:09.042Z,7.06
2023-04-01T05:35:09.030Z,7.07
2023-04-01T05:36:09.323Z,7.06
2023-04-01T05:37:09.001Z,7.09
2023-04-01T05:38:08.999Z,7.09
2023-04-01T05:39:08.970Z,7.09
2023-04-01T05:40:09.019Z,7.05
2023-04-01T05:41:08.948Z,7.07
2023-04-01T05:42:08.966Z,7.09
2023-04-01T05:43:08.972Z,7.05
2023-04-01T05:44:08.934Z,7.02
2023-04-01T05:45:08.918Z,7.05
2023-04-01T05:46:08.919Z,7.05
2023-04-01T05:47:08.899Z,7.03
2023-04-01T05:48:08.882Z,7.10
2023-04-01T05:49:08.870Z,7.20
2023-04-01T05:50:08.859Z,7.30
2023-04-01T05:51:08.875Z,7.39
2023-04-01T05:52:08.833Z,7.42
2023-04-01T05:53:08.826Z,7.45
2023-04-01T05:54:08.812Z,7.43
2023-04-01T05:55:08.853Z,7.50
2023-04-01T05:56:08.804Z,7.52
2023-04-01T05:57:08.927Z,7.52
2023-04-01T05:58:08.803Z,7.55
2023-04-01T05:59:08.766Z,7.53
2023-04-01T06:00:08.754Z,7.52
2023-04-01T06:01:11.305Z,7.55
2023-04-01T06:02:09.728Z,7.53
2023-04-01T06:03:08.819Z,7.57
2023-04-01T06:04:08.822Z,7.64
2023-04-01T06:05:08.726Z,7.68
2023-04-01T06:06:08.676Z,7.69
2023-04-01T06:07:08.692Z,7.72
2023-04-01T06:08:08.944Z,7.71
2023-04-01T06:09:08.650Z,7.79
2023-04-01T06:10:08.742Z,7.79
2023-04-01T06:11:08.640Z,7.83
2023-04-01T06:12:08.684Z,7.86
2023-04-01T06:13:08.611Z,7.89
2023-04-01T06:14:08.617Z,7.95
2023-04-01T06:15:08.596Z,8.07
2023-04-01T06:16:08.605Z,8.18
2023-04-01T06:17:08.595Z,8.29
2023-04-01T06:18:08.661Z,8.40
2023-04-01T06:19:08.565Z,8.41
2023-04-01T06:20:08.547Z,8.41
2023-04-01T06:21:08.620Z,8.41
2023-04-01T06:22:08.527Z,8.37
2023-04-01T06:23:08.525Z,8.37
2023-04-01T06:24:08.498Z,8.36
2023-04-01T06:25:08.488Z,8.43
2023-04-01T06:26:08.465Z,8.44
2023-04-01T06:27:08.466Z,8.48
2023-04-01T06:28:09.259Z,8.55
2023-04-01T06:29:08.444Z,8.61
2023-04-01T06:30:08.476Z,8.68
2023-04-01T06:31:08.426Z,8.73
2023-04-01T06:32:08.421Z,8.79
2023-04-01T06:33:08.435Z,8.86
2023-04-01T06:34:08.379Z,8.98
2023-04-01T06:35:08.387Z,8.96
2023-04-01T06:36:08.448Z,8.99
2023-04-01T06:37:08.364Z,8.98
2023-04-01T06:38:08.340Z,8.99
2023-04-01T06:39:10.971Z,9.05
2023-04-01T06:40:09.137Z,9.13
2023-04-01T06:41:08.306Z,9.17
2023-04-01T06:42:08.351Z,9.11
2023-04-01T06:43:08.289Z,9.14
2023-04-01T06:44:08.309Z,9.11
2023-04-01T06:45:08.277Z,9.15
2023-04-01T06:46:08.275Z,9.15
2023-04-01T06:47:08.251Z,9.17
2023-04-01T06:48:09.083Z,9.08
2023-04-01T06:49:08.232Z,9.04
2023-04-01T06:50:08.209Z,9.01
2023-04-01T06:51:08.210Z,9.05
2023-04-01T06:52:08.208Z,9.10
2023-04-01T06:53:08.192Z,9.08
2023-04-01T06:54:08.191Z,9.04
2023-04-01T06:55:08.171Z,9.08
2023-04-01T06:56:08.365Z,9.11
2023-04-01T06:57:08.209Z,9.13
2023-04-01T06:58:08.135Z,9.10
2023-04-01T06:59:08.147Z,9.11
2023-04-01T07:00:08.129Z,9.14
2023-04-01T07:01:08.111Z,9.20
2023-04-01T07:02:08.177Z,9.32
2023-04-01T07:03:08.093Z,9.40
2023-04-01T07:04:08.069Z,9.43
2023-04-01T07:05:08.060Z,9.43
2023-04-01T07:06:08.043Z,9.51
2023-04-01T07:07:08.040Z,9.57
2023-04-01T07:08:08.021Z,9.66
2023-04-01T07:09:08.016Z,9.71
2023-04-01T07:10:07.991Z,9.74
2023-04-01T07:11:08.002Z,9.76
2023-04-01T07:12:07.975Z,9.74
2023-04-01T07:13:07.968Z,9.72
2023-04-01T07:14:07.980Z,9.76
2023-04-01T07:15:08.131Z,9.89
2023-04-01T07:16:07.930Z,9.93
2023-04-01T07:17:08.037Z,9.97
2023-04-01T07:18:07.979Z,10.04
2023-04-01T07:19:07.905Z,10.05
2023-04-01T07:20:07.901Z,10.01
2023-04-01T07:21:07.893Z,9.99
2023-04-01T07:22:07.861Z,10.09
2023-04-01T07:23:07.860Z,10.15
2023-04-01T07:24:07.842Z,10.17
2023-04-01T07:25:08.201Z,10.12
2023-04-01T07:26:07.824Z,10.08
2023-04-01T07:27:07.825Z,10.01
2023-04-01T07:28:07.795Z,9.94
2023-04-01T07:29:07.924Z,9.90
2023-04-01T07:30:07.783Z,9.84
2023-04-01T07:31:07.827Z,9.78
2023-04-01T07:32:07.784Z,9.72
2023-04-01T07:33:07.852Z,9.69
2023-04-01T07:34:07.732Z,9.61
2023-04-01T07:35:07.740Z,9.64
2023-04-01T07:36:07.752Z,9.60
2023-04-01T07:37:07.716Z,9.56
2023-04-01T07:38:07.700Z,9.57
2023-04-01T07:39:07.691Z,9.54
2023-04-01T07:40:07.672Z,9.51
2023-04-01T07:41:07.690Z,9.51
2023-04-01T07:42:07.648Z,9.56
2023-04-01T07:43:07.672Z,9.57
2023-04-01T07:44:07.631Z,9.64
2023-04-01T07:45:07.643Z,9.69
2023-04-01T07:46:07.641Z,9.86
2023-04-01T07:47:07.616Z,9.86
2023-04-01T07:48:08.585Z,9.93
2023-04-01T07:49:07.591Z,10.05
2023-04-01T07:50:07.576Z,10.07
2023-04-01T07:51:07.575Z,10.17
2023-04-01T07:52:07.553Z,10.18
2023-04-01T07:53:07.552Z,10.23
2023-04-01T07:54:07.526Z,10.20
2023-04-01T07:55:07.530Z,10.29
2023-04-01T07:56:07.506Z,10.34
2023-04-01T07:57:07.587Z,10.36
2023-04-01T07:58:07.487Z,10.45
2023-04-01T07:59:07.481Z,10.48
2023-04-01T08:00:07.489Z,10.53
2023-04-01T08:01:07.466Z,10.67
2023-04-01T08:02:07.454Z,10.63
2023-04-01T08:03:07.598Z,10.60
2023-04-01T08:04:07.621Z,10.59
2023-04-01T08:05:07.638Z,10.59
2023-04-01T08:06:07.425Z,10.64
2023-04-01T08:07:07.408Z,10.67
2023-04-01T08:08:07.425Z,10.71
2023-04-01T08:09:07.409Z,10.78
2023-04-01T08:10:07.364Z,10.76
2023-04-01T08:11:07.353Z,10.73
2023-04-01T08:12:07.339Z,10.85
2023-04-01T08:13:07.332Z,10.94
2023-04-01T08:14:07.327Z,11.03
2023-04-01T08:15:07.307Z,11.06
2023-04-01T08:16:07.321Z,11.07
2023-04-01T08:17:07.292Z,11.02
2023-04-01T08:18:07.323Z,10.99
2023-04-01T08:19:07.282Z,11.00
2023-04-01T08:20:07.246Z,11.06
2023-04-01T08:21:07.296Z,11.04
2023-04-01T08:22:07.237Z,11.09
2023-04-01T08:23:07.226Z,11.07
2023-04-01T08:24:07.203Z,11.04
2023-04-01T08:25:07.228Z,10.97
2023-04-01T08:26:07.179Z,10.79
2023-04-01T08:27:07.184Z,10.76
2023-04-01T08:28:07.169Z,10.67
2023-04-01T08:29:07.168Z,10.61
2023-04-01T08:30:09.391Z,10.61
2023-04-01T08:31:07.143Z,10.60
2023-04-01T08:32:07.197Z,10.51
2023-04-01T08:33:07.167Z,10.40
2023-04-01T08:34:07.118Z,10.40
2023-04-01T08:35:07.102Z,10.38
2023-04-01T08:36:07.185Z,10.40
2023-04-01T08:37:07.082Z,10.41
2023-04-01T08:38:07.062Z,10.38
2023-04-01T08:39:07.077Z,10.34
2023-04-01T08:40:07.060Z,10.26
2023-04-01T08:41:07.053Z,10.20
2023-04-01T08:42:07.552Z,10.15
2023-04-01T08:43:07.016Z,10.11
2023-04-01T08:44:07.014Z,10.12
2023-04-01T08:45:06.992Z,10.15
2023-04-01T08:46:06.985Z,10.20
2023-04-01T08:47:06.983Z,10.18
2023-04-01T08:48:07.168Z,10.14
2023-04-01T08:49:06.967Z,10.14
2023-04-01T08:50:07.068Z,10.18
2023-04-01T08:51:06.938Z,10.22
2023-04-01T08:52:06.908Z,10.27
2023-04-01T08:53:06.920Z,10.20
2023-04-01T08:54:06.896Z,10.17
2023-04-01T08:55:06.907Z,10.14
2023-04-01T08:56:06.870Z,10.17
2023-04-01T08:57:06.886Z,10.23
2023-04-01T08:58:06.868Z,10.26
2023-04-01T08:59:06.860Z,10.26
2023-04-01T09:00:06.854Z,10.20
2023-04-01T09:01:06.831Z,10.25
2023-04-01T09:02:06.833Z,10.26
2023-04-01T09:03:07.087Z,10.29
2023-04-01T09:04:06.828Z,10.27
2023-04-01T09:05:06.786Z,10.22
2023-04-01T09:06:07.574Z,10.26
2023-04-01T09:07:06.770Z,10.27
2023-04-01T09:08:06.754Z,10.27
2023-04-01T09:09:06.739Z,10.36
2023-04-01T09:10:06.741Z,10.40
2023-04-01T09:11:06.728Z,10.34
2023-04-01T09:12:06.744Z,10.41
2023-04-01T09:13:06.709Z,10.34
2023-04-01T09:14:06.672Z,10.38
2023-04-01T09:15:06.681Z,10.29
2023-04-01T09:16:06.732Z,10.29
2023-04-01T09:17:06.657Z,10.22
2023-04-01T09:18:06.727Z,10.12
2023-04-01T09:19:06.665Z,10.14
2023-04-01T09:20:06.620Z,10.20
2023-04-01T09:21:06.620Z,10.17
2023-04-01T09:22:06.598Z,10.07
2023-04-01T09:23:06.592Z,9.99
2023-04-01T09:24:06.590Z,10.02
2023-04-01T09:25:06.601Z,10.09
2023-04-01T09:26:06.560Z,10.11
2023-04-01T09:27:06.586Z,10.08
2023-04-01T09:28:06.542Z,10.07
2023-04-01T09:29:06.550Z,10.09
2023-04-01T09:30:06.550Z,10.08
2023-04-01T09:31:06.586Z,10.04
2023-04-01T09:32:06.504Z,10.08
2023-04-01T09:33:06.544Z,10.09
2023-04-01T09:34:06.480Z,10.12
2023-04-01T09:35:06.489Z,10.15
2023-04-01T09:36:07.349Z,10.17
2023-04-01T09:37:06.459Z,10.17
2023-04-01T09:38:06.453Z,10.22
2023-04-01T09:39:06.427Z,10.23
2023-04-01T09:40:06.420Z,10.23
2023-04-01T09:41:06.434Z,10.20
2023-04-01T09:42:06.402Z,10.15
2023-04-01T09:43:06.405Z,10.20
2023-04-01T09:44:06.388Z,10.25
2023-04-01T09:45:06.370Z,10.30
2023-04-01T09:46:06.402Z,10.30
2023-04-01T09:47:06.367Z,10.32
2023-04-01T09:48:06.353Z,10.34
2023-04-01T09:49:06.333Z,10.32
2023-04-01T09:50:06.311Z,10.32
2023-04-01T09:51:06.315Z,10.29
2023-04-01T09:52:06.306Z,10.18
2023-04-01T09:53:06.290Z,10.25
2023-04-01T09:54:06.268Z,10.34
2023-04-01T09:55:06.269Z,10.38
2023-04-01T09:56:06.241Z,10.36
2023-04-01T09:57:06.305Z,10.38
2023-04-01T09:58:06.250Z,10.40
2023-04-01T09:59:06.215Z,10.44
2023-04-01T10:00:06.214Z,10.38
2023-04-01T10:01:07.021Z,10.38
2023-04-01T10:02:06.296Z,10.52
2023-04-01T10:03:06.213Z,10.59
2023-04-01T10:04:06.173Z,10.71
2023-04-01T10:05:06.185Z,10.85
2023-04-01T10:06:06.173Z,10.86
2023-04-01T10:07:06.137Z,10.84
2023-04-01T10:08:06.376Z,10.82
2023-04-01T10:09:06.119Z,10.89
2023-04-01T10:10:06.112Z,11.02
2023-04-01T10:11:06.079Z,11.11
2023-04-01T10:12:06.083Z,11.18
2023-04-01T10:13:06.072Z,11.14
2023-04-01T10:14:06.069Z,11.15
2023-04-01T10:15:06.042Z,11.17
2023-04-01T10:16:06.107Z,11.17
2023-04-01T10:17:06.026Z,11.22
2023-04-01T10:18:06.162Z,11.29
2023-04-01T10:19:06.013Z,11.27
2023-04-01T10:20:05.992Z,11.18
2023-04-01T10:21:05.970Z,11.06
2023-04-01T10:22:05.976Z,11.15
2023-04-01T10:23:05.955Z,11.24
2023-04-01T10:24:05.948Z,11.24
2023-04-01T10:25:06.418Z,11.25
2023-04-01T10:26:05.928Z,11.32
2023-04-01T10:27:05.949Z,11.28
2023-04-01T10:28:05.915Z,11.32
2023-04-01T10:29:05.946Z,11.28
2023-04-01T10:30:05.891Z,11.36
2023-04-01T10:31:05.866Z,11.37
2023-04-01T10:32:05.903Z,11.46
2023-04-01T10:33:05.936Z,11.49
2023-04-01T10:34:05.844Z,11.55
2023-04-01T10:35:05.829Z,11.55
2023-04-01T10:36:05.904Z,11.65
2023-04-01T10:37:05.798Z,11.85
2023-04-01T10:38:05.811Z,11.94
2023-04-01T10:39:05.774Z,12.09
2023-04-01T10:40:05.783Z,12.19
2023-04-01T10:41:05.777Z,12.23
2023-04-01T10:42:05.748Z,11.96
2023-04-01T10:43:05.743Z,12.02
2023-04-01T10:44:05.729Z,11.99
2023-04-01T10:45:05.717Z,11.91
2023-04-01T10:46:05.766Z,11.91
2023-04-01T10:47:05.685Z,11.83
2023-04-01T10:48:05.749Z,11.83
2023-04-01T10:49:05.697Z,11.82
2023-04-01T10:50:05.660Z,11.72
2023-04-01T10:51:05.654Z,11.64
2023-04-01T10:52:05.681Z,11.57
2023-04-01T10:53:07.365Z,11.57
2023-04-01T10:54:05.614Z,11.54
2023-04-01T10:55:05.610Z,11.61
2023-04-01T10:56:05.590Z,11.85
2023-04-01T10:57:05.672Z,12.09
2023-04-01T10:58:05.650Z,12.27
2023-04-01T10:59:05.552Z,12.37
2023-04-01T11:00:05.563Z,12.37
2023-04-01T11:01:05.554Z,12.32
2023-04-01T11:02:11.426Z,12.27
2023-04-01T11:03:06.558Z,12.14
2023-04-01T11:04:05.512Z,12.01
2023-04-01T11:05:05.498Z,11.90
2023-04-01T11:06:05.482Z,11.75
2023-04-01T11:07:05.480Z,11.76
2023-04-01T11:08:06.868Z,11.61
2023-04-01T11:09:05.465Z,11.44
2023-04-01T11:10:05.450Z,11.47
2023-04-01T11:11:05.426Z,11.55
2023-04-01T11:12:05.449Z,11.64
2023-04-01T11:13:05.398Z,11.58
2023-04-01T11:14:05.405Z,11.72
2023-04-01T11:15:05.375Z,11.85
2023-04-01T11:16:05.435Z,11.96
2023-04-01T11:17:05.359Z,11.82
2023-04-01T11:18:05.417Z,11.90
2023-04-01T11:19:05.342Z,12.02
2023-04-01T11:20:05.334Z,11.86
2023-04-01T11:21:05.321Z,11.69
2023-04-01T11:22:05.313Z,11.64
2023-04-01T11:23:05.297Z,11.70
2023-04-01T11:24:06.080Z,11.80
2023-04-01T11:25:05.282Z,11.80
2023-04-01T11:26:05.266Z,11.90
2023-04-01T11:27:05.325Z,11.98
2023-04-01T11:28:05.261Z,12.05
2023-04-01T11:29:05.802Z,12.19
2023-04-01T11:30:05.224Z,12.29
2023-04-01T11:31:05.255Z,12.34
2023-04-01T11:32:05.204Z,12.20
2023-04-01T11:33:05.259Z,12.01
2023-04-01T11:34:05.181Z,11.95
2023-04-01T11:35:05.154Z,11.85
2023-04-01T11:36:05.152Z,11.86
2023-04-01T11:37:05.145Z,11.75
2023-04-01T11:38:05.138Z,11.58
2023-04-01T11:39:05.112Z,11.44
2023-04-01T11:40:05.114Z,11.42
2023-04-01T11:41:05.094Z,11.32
2023-04-01T11:42:05.898Z,11.35
2023-04-01T11:43:05.075Z,11.46
2023-04-01T11:44:05.061Z,11.62
2023-04-01T11:45:05.045Z,11.55
2023-04-01T11:46:05.132Z,11.47
2023-04-01T11:47:05.057Z,11.47
2023-04-01T11:48:05.071Z,11.47
2023-04-01T11:49:05.023Z,11.46
2023-04-01T11:50:05.029Z,11.61
2023-04-01T11:51:05.090Z,11.75
2023-04-01T11:52:04.982Z,11.85
2023-04-01T11:53:04.957Z,12.01
2023-04-01T11:54:04.958Z,12.17
2023-04-01T11:55:04.943Z,12.23
2023-04-01T11:56:04.958Z,12.35
2023-04-01T11:57:04.982Z,12.47
2023-04-01T11:58:04.918Z,12.37
2023-04-01T11:59:04.908Z,12.37
2023-04-01T12:00:04.897Z,12.20
2023-04-01T12:01:04.883Z,12.13
2023-04-01T12:02:05.699Z,12.05
2023-04-01T12:03:04.875Z,11.95
2023-04-01T12:04:05.070Z,11.88
2023-04-01T12:05:04.833Z,11.85
2023-04-01T12:06:04.824Z,11.99
2023-04-01T12:07:04.825Z,12.05
2023-04-01T12:08:04.805Z,12.10
2023-04-01T12:09:04.791Z,11.98
2023-04-01T12:10:04.942Z,12.01
2023-04-01T12:11:04.956Z,11.98
2023-04-01T12:12:04.766Z,11.95
2023-04-01T12:13:04.749Z,11.90
2023-04-01T12:14:04.743Z,11.95
2023-04-01T12:15:04.739Z,11.96
2023-04-01T12:16:04.740Z,11.82
2023-04-01T12:17:04.699Z,11.96
2023-04-01T12:18:04.795Z,12.05
2023-04-01T12:19:04.678Z,12.09
2023-04-01T12:20:04.672Z,12.24
2023-04-01T12:21:04.650Z,12.32
2023-04-01T12:22:04.663Z,12.34
2023-04-01T12:23:04.760Z,12.27
2023-04-01T12:24:04.636Z,12.31
2023-04-01T12:25:04.614Z,12.35
2023-04-01T12:26:04.612Z,12.47
2023-04-01T12:27:04.594Z,12.49
2023-04-01T12:28:04.586Z,12.49
2023-04-01T12:29:04.585Z,12.45
2023-04-01T12:30:04.566Z,12.46
2023-04-01T12:31:04.548Z,12.53
2023-04-01T12:32:04.624Z,12.68
2023-04-01T12:33:04.559Z,12.74
2023-04-01T12:34:04.540Z,12.57
2023-04-01T12:35:04.500Z,12.38
2023-04-01T12:36:04.538Z,12.29
2023-04-01T12:37:04.485Z,12.10
2023-04-01T12:38:04.484Z,12.09
2023-04-01T12:39:04.454Z,11.98
2023-04-01T12:40:04.475Z,11.90
2023-04-01T12:41:04.437Z,11.80
2023-04-01T12:42:04.439Z,11.80
2023-04-01T12:43:04.435Z,11.86
2023-04-01T12:44:04.423Z,11.96
2023-04-01T12:45:04.392Z,12.01
2023-04-01T12:46:04.406Z,12.01
2023-04-01T12:47:04.370Z,11.88
2023-04-01T12:48:04.431Z,12.02
2023-04-01T12:49:04.374Z,12.13
2023-04-01T12:50:04.353Z,12.41
2023-04-01T12:51:04.332Z,12.67
2023-04-01T12:52:04.338Z,12.74
2023-04-01T12:53:04.362Z,12.89
2023-04-01T12:54:04.314Z,13.23
2023-04-01T12:55:04.386Z,13.45
2023-04-01T12:56:04.282Z,13.52
2023-04-01T12:57:04.311Z,13.79
2023-04-01T12:58:04.263Z,13.91
2023-04-01T12:59:04.246Z,14.07
2023-04-01T13:00:04.246Z,14.22
2023-04-01T13:01:04.281Z,14.54
2023-04-01T13:02:04.219Z,14.39
2023-04-01T13:03:04.266Z,14.24
2023-04-01T13:04:04.262Z,14.03
2023-04-01T13:05:04.184Z,14.12
2023-04-01T13:06:04.177Z,14.02
2023-04-01T13:07:04.157Z,14.39